ENFL/FRO METAR and TAF weather

Enter ICAO airport designator
Station Type Date Time Source
ENFL METAR 2020/11/28 20:20 UTC NOAA

ENFL 282020Z AUTO 14015KT 9999NDV BKN024/// OVC034/// 07/02 Q1027


Station Type Date Time Source
ENFL Decoded METAR 2020/11/28 20:20 UTC NOAA

Floro, Norway (ENFL) 61-35N 005-02E 9M
Nov 28, 2020 - 03:20 PM EST / 2020.11.28 2020 UTC
Wind: from the SE (140 degrees) at 17 MPH (15 KT):0
Sky conditions: overcast
Temperature: 44 F (7 C)
Dew Point: 35 F (2 C)
Relative Humidity: 70%
Pressure (altimeter): 30.33 in. Hg (1027 hPa)
ob: ENFL 282020Z AUTO 14015KT 9999NDV BKN024/// OVC034/// 07/02 Q1027
cycle: 20

Station Type Date Time Source
ENFL TAF 2010/02/05 07:50 UTC NOAA

METAR ENFL 050750Z 16019KT 140V200 9999 FEW015 SCT030 BKN055 03/M03 Q1011

Example: see airport list